Locatie 51° 56′ 37″.87 NB – 05° 58’47”.70 OL

Webcam1-NNO Meer informatie Webcam1-NNO


Webcam2-ZZO Meer informatie Webcam2-ZZO


Bezoek ook deze websites:

Template documentatie
en downloads

Weer Sluispark Leuven

Allesoversterrenkunde.nl

Luchtkwaliteit Beekenoord



Select another period ( hide this area )

Eenheden Periode Custom range Directly to
Metrisch Engels Beide
Dagelijkse Wekelijkse Maandelijkse Jaarlijkse
use both date-selectors for a custom range
previous Dag
With this date

WeatherUnderground graphs for this period ( click here )


Dagelijkse Samenvatting Zaterdag 25 mei 2024
Tijd Temp. ( °C ) Dew pt. ( °C ) Wind ( km/h ) van Windvlaag ( km/h ) Luchtdruk ( hPa ) Humid.( % ) Rainrate ( cm ) Zonneschijn ( W/m2 )
Hoog18,7 16,2 11,1 ZW ( 161/516 ) 14,5 1016,3 98 1,80 1083
Gemiddeld15,7 14,5 1,9 Kalm #91/268 4,1 1015,1 93 1,50 198 #188/268
Laag14,2 13,7 -   0,0 1014,2 78 -  
Dagelijkse Tabular details for Zaterdag 25 mei 2024
Tijd Temp. ( °C ) Dew pt. ( °C ) Wind ( km/h ) van Windvlaag ( km/h ) Luchtdruk ( hPa ) Humid.( % ) Rainrate ( cm ) Zonneschijn ( W/m2 )
00:02 14,6 14,1 4,7 Noorden 6,4 1016,3 97 0,20 -
00:07 14,6 14,1 4,7 NNO 6,4 1016,3 97 0,20 -
00:12 14,6 14,1 3,2 Noorden 8,0 1016,3 97 0,20 -
00:17 14,6 14,1 3,2 Noorden 8,0 1016,3 97 0,20 -
00:22 14,6 14,1 4,7 NNW 4,8 1016,3 97 0,20 -
00:27 14,6 14,1 7,9 ONO 9,7 1016,3 97 0,50 -
00:32 14,6 14,1   Kalm 8,0 1016,3 97 0,50 -
00:37 14,6 14,1 3,2 NO 6,4 1016,3 97 0,20 -
00:42 14,5 14,0 6,4 ONO 12,9 1016,3 97 0,20 -
00:47 14,5 14,0 1,4 NNO 6,4 1015,9 97 0,20 -
00:52 14,5 14,0 4,7 NO 9,7 1015,9 97 0,20 -
00:57 14,5 14,0 6,4 NO 8,0 1015,9 97 0,20 -
01:02 14,4 13,9 4,7 NO 11,3 1015,9 97 0,50 -
01:07 14,5 14,0   Kalm 4,8 1015,9 97 0,50 -
01:12 14,6 14,1 3,2 NNW 6,4 1015,9 97 0,50 -
01:17 14,5 14,0 1,4 NO 4,8 1015,9 97 0,80 -
01:22 14,5 14,0 3,2 Noorden 4,8 1015,9 97 0,80 -
01:27 14,5 14,0 3,2 NNO 4,8 1015,9 97 0,80 -
01:32 14,4 13,9 3,2 NNO 4,8 1015,9 97 0,80 -
01:37 14,4 13,9 6,4 NNW 11,3 1015,9 97 0,80 -
01:42 14,4 13,9 4,7 NO 6,4 1015,9 97 1,00 -
01:47 14,4 13,9 3,2 Noorden 4,8 1015,9 97 1,00 -
01:52 14,4 13,9 1,4 NNO 4,8 1015,9 97 1,30 -
01:57 14,4 13,9 3,2 NW 4,8 1015,9 97 1,50 -
02:02 14,3 13,8 1,4 NO 3,2 1015,9 97 1,30 -
02:08 14,3 13,8   Kalm 4,8 1015,6 97 1,50 -
02:13 14,3 13,8   Kalm 4,8 1015,6 97 1,30 -
02:18 14,3 13,8 1,4 NO 4,8 1015,6 97 1,00 -
02:23 14,3 13,8   Kalm 3,2 1015,6 97 1,00 -
02:28 14,3 13,8 1,4 NNO 4,8 1015,6 97 1,00 -
02:33 14,3 13,8   Kalm 3,2 1015,6 97 1,00 -
02:38 14,3 13,8 3,2 Noorden 6,4 1015,6 97 1,00 -
02:43 14,3 13,8 4,7 NNW 4,8 1015,6 97 0,80 -
02:48 14,3 13,8 1,4 NO 3,2 1015,2 97 0,50 -
02:53 14,3 13,8 4,7 NNO 4,8 1015,2 97 0,50 -
02:58 14,3 13,8   Kalm 3,2 1015,2 97 0,50 -
03:03 14,3 13,8 1,4 NO 1,6 1015,2 97 0,50 -
03:08 14,2 13,7   Kalm 3,2 1015,2 97 0,50 -
03:13 14,3 13,8   Kalm 3,2 1015,2 97 0,50 -
03:18 14,2 13,7 1,4 Noorden 3,2 1015,2 97 0,50 -
03:23 14,2 13,7 3,2 NO 3,2 1015,2 97 0,50 -
03:28 14,2 13,7 1,4 NNW 6,4 1015,2 97 0,20 -
03:33 14,2 13,7 1,4 Noorden 3,2 1015,2 97 0,50 -
03:38 14,2 13,7 3,2 NO 4,8 1015,2 97 0,50 -
03:43 14,2 13,7 1,4 Noorden 3,2 1015,2 97 0,50 -
03:48 14,2 13,7   Kalm 1,6 1014,9 97 0,50 -
03:53 14,2 13,7 1,4 ONO 4,8 1014,9 97 0,50 -
03:58 14,2 13,7   Kalm 4,8 1014,9 97 0,20 -
04:03 14,3 13,8 1,4 ONO 4,8 1014,9 97 0,50 -
04:08 14,3 13,8 3,2 NO 6,4 1014,9 97 0,50 -
04:13 14,3 13,8 3,2 NO 4,8 1014,9 97 0,50 -
04:18 14,3 13,8 6,4 NO 6,4 1014,9 97 0,50 -
04:23 14,3 13,8   Kalm 4,8 1014,9 97 0,50 -
04:28 14,3 14,0 3,2 ONO 3,2 1014,9 98 0,50 -
04:33 14,3 14,0 3,2 NNO 4,8 1014,9 98 0,20 -
04:38 14,3 14,0 1,4 NO 3,2 1014,9 98 0,20 -
04:43 14,3 14,0 1,4 Noorden 3,2 1014,6 98 0,20 -
04:48 14,3 14,0 1,4 Oosten 3,2 1014,6 98 0,20 -
04:53 14,3 14,0 3,2 Noorden 3,2 1014,6 98 0,20 -
04:58 14,3 14,0 1,4 NNO 4,8 1014,6 98 0,20 -
05:03 14,3 14,0 3,2 Noorden 3,2 1014,6 98 - -
05:08 14,3 14,0 3,2 NNO 4,8 1014,6 98 0,20 -
05:13 14,3 14,0 1,4 Noorden 1,6 1014,6 98 0,20 -
05:18 14,3 14,0 1,4 NO 1,6 1014,6 98 0,20 -
05:23 14,3 14,0 1,4 Noorden 3,2 1014,6 98 0,20 -
05:28 14,3 14,0   Kalm 3,2 1014,6 98 0,20 -
05:33 14,3 14,0 3,2 NNW 3,2 1014,6 98 0,20 -
05:38 14,3 14,0   Kalm 4,8 1014,6 98 0,20 -
05:43 14,3 14,0 1,4 Oosten 3,2 1014,6 98 0,20 -
05:48 14,3 14,0 1,4 Oosten 1,6 1014,6 98 0,20 -
05:53 14,3 14,0 1,4 NNO 3,2 1014,6 98 0,20 -
05:58 14,3 14,0 1,4 Noorden 3,2 1014,2 98 0,20 5
06:03 14,3 14,0 3,2 NNO 3,2 1014,2 98 0,20 7
06:08 14,3 14,0 1,4 Noorden 1,6 1014,2 98 - 9
06:13 14,3 14,0 1,4 NNO 3,2 1014,2 98 - 11
06:18 14,3 14,0 1,4 ONO 4,8 1014,2 98 - 14
06:23 14,3 14,0   Kalm 4,8 1014,2 98 - 23
06:28 14,3 14,0 1,4 NO 8,0 1014,2 98 - 16
06:33 14,4 14,1 1,4 NNW 4,8 1014,2 98 - 14
06:38 14,3 14,0 1,4 Oosten 3,2 1014,2 98 - 11
06:43 14,3 14,0 1,4 Oosten 1,6 1014,2 98 - 9
06:48 14,4 14,1 1,4 NO 3,2 1014,2 98 - 11
06:53 14,3 14,0   Kalm 3,2 1014,2 98 - 25
06:58 14,3 14,0 3,2 NO 4,8 1014,2 98 - 26
07:03 14,4 14,1 3,2 NO 6,4 1014,2 98 - 37
07:08 14,3 14,0 4,7 OZO 4,8 1014,2 98 - 42
07:13 14,4 14,1   Kalm 3,2 1014,2 98 - 54
07:18 14,4 14,1   Kalm 3,2 1014,2 98 - 49
07:23 14,4 14,1 1,4 OZO 4,8 1014,2 98 - 44
07:28 14,4 14,1 1,4 Oosten 4,8 1014,2 98 - 42
07:33 14,5 14,2   Kalm 3,2 1014,2 98 - 97
07:38 14,6 14,3   Kalm 1,6 1014,2 98 - 292
07:43 14,8 14,5   Kalm 3,2 1014,2 98 - 190
07:48 14,9 14,6   Kalm 4,8 1014,2 98 - 186
07:53 14,9 14,4 3,2 ZO 6,4 1014,2 97 - 146
07:58 14,9 14,6   Kalm 1,6 1014,2 98 - 308
08:03 14,9 14,6   Kalm 1,6 1014,2 98 - 60
08:08 14,8 14,3   Kalm   1014,2 97 - 54
08:13 14,7 14,2   Kalm 3,2 1014,6 97 - 79
08:18 14,7 14,2 1,4 ZO 1,6 1014,6 97 - 121
08:23 14,8 14,3 1,4 ZZO 3,2 1014,2 97 - 139
08:28 14,8 14,3   Kalm 3,2 1014,6 97 - 102
08:33 14,8 14,3   Kalm 1,6 1014,6 97 - 134
08:38 14,8 14,3   Kalm 1,6 1014,6 97 - 125
08:43 14,8 14,3 1,4 ZZO 3,2 1014,6 97 - 186
08:48 14,9 14,4 1,4 ZO 3,2 1014,6 97 - 260
08:53 15,1 14,6 1,4 ZW 4,8 1014,6 97 - 348
08:58 15,3 14,8 1,4 ZO 6,4 1014,6 97 - 220
09:03 15,4 14,8   Kalm   1014,6 96 - 123
09:08 15,3 14,7 3,2 OZO 3,2 1014,6 96 - 137
09:13 15,3 14,5 1,4 ZZW 3,2 1014,6 95 - 139
09:18 15,2 14,4   Kalm 1,6 1014,6 95 - 255
09:23 15,4 14,6 3,2 OZO 4,8 1014,6 95 - 411
09:28 15,8 14,8 6,4 ZO 6,4 1014,6 94 - 304
09:33 16,0 14,9 3,2 Oosten 6,4 1014,6 93 - 359
09:38 16,1 14,8   Kalm 3,2 1014,6 92 - 230
09:43 16,2 14,9 1,4 ZW 3,2 1014,6 92 - 279
09:48 16,2 14,9 3,2 ZW 3,2 1014,6 92 - 260
09:53 16,1 14,6 3,2 ZZO 4,8 1014,6 91 - 364
09:58 16,8 15,3 3,2 ZZW 4,8 1014,6 91 - 353
10:03 16,4 14,8 1,4 ZW 3,2 1014,6 90 - 223
10:08 16,3 14,7 3,2 ZO 4,8 1014,6 90 - 243
10:13 16,5 14,9 1,4 Oosten 6,4 1014,6 90 - 301
10:18 16,6 14,8 3,2 ZO 4,8 1014,6 89 - 269
10:23 16,6 14,6 4,7 ZO 8,0 1014,6 88 - 223
10:28 16,6 14,6 1,4 Zuiden 4,8 1014,6 88 - 239
10:33 16,6 14,6 3,2 ZW 4,8 1014,6 88 - 207
10:38 16,7 14,9 1,4 ZW 4,8 1014,6 89 - 142
10:43 16,4 14,6 3,2 ZZW 4,8 1014,6 89 - 178
10:48 16,1 14,5   Kalm 6,4 1014,6 90 - 338
10:53 16,1 14,6 1,4 ZW 3,2 1014,6 91 - 332
10:59 16,3 14,8 1,4 ZZO 6,4 1014,6 91 - 304
11:04 16,7 15,1 1,4 WZW 3,2 1014,6 90 - 285
11:09 16,7 15,1   Kalm 4,8 1014,6 90 - 267
11:14 16,7 14,9 1,4 WZW 6,4 1014,6 89 - 297
11:19 16,7 14,3 1,4 ONO 8,0 1014,6 86 - 338
11:24 16,7 14,2 4,7 Oosten 8,0 1014,9 85 - 445
11:29 17,2 14,7 3,2 ZO 8,0 1014,6 85 - 540
11:34 17,6 14,5 1,4 Zuiden 9,7 1014,6 82 - 512
11:39 17,6 13,7 1,4 ZO 4,8 1014,6 78 - 552
11:44 17,8 14,7 1,4 ZO 4,8 1014,9 82 - 420
11:49 17,8 14,9 3,2 ZW 4,8 1014,6 83 - 408
11:54 17,6 15,0 3,2 ZW 4,8 1014,9 85 - 294
11:59 17,4 15,0   Kalm 4,8 1014,9 86 - 285
12:04 17,3 14,9   Kalm 3,2 1014,9 86 - 338
12:09 17,6 15,0 3,2 ZW 3,2 1014,6 85 - 461
12:14 18,0 14,9 4,7 OZO 11,3 1014,9 82 - 547
12:19 18,7 15,4 3,2 WZW 4,8 1014,6 81 - 617
12:24 18,3 14,8 1,4 ZW 4,8 1014,9 80 - 229
12:29 17,9 14,8   Kalm 3,2 1014,9 82 - 410
12:34 18,2 15,3 1,4 ZW 3,2 1014,9 83 - 552
12:39 18,2 14,9 3,2 OZO 4,8 1014,9 81 - 369
12:44 18,3 15,2 3,2 ZO 4,8 1014,9 82 - 385
12:49 18,4 15,1 6,4 ZO 11,3 1014,9 81 - 250
12:54 18,1 15,0 1,4 ZZO 9,7 1014,9 82 - 234
12:59 17,9 15,0 11,1 OZO 11,3 1014,9 83 - 165
13:04 17,7 14,8 6,4 ZO 14,5 1014,9 83 - 116
13:09 17,4 14,9 4,7 OZO 6,4 1014,9 85 - 63
13:14 17,1 14,9 4,7 ZW 6,4 1014,9 87 1,00 37
13:19 16,8 15,0 1,4 Oosten 3,2 1014,9 89 1,50 35
13:24 16,6 15,0 1,4 ZW 3,2 1014,9 90 1,50 63
13:29 16,3 14,8   Kalm 3,2 1014,9 91 1,50 97
13:34 16,3 15,0   Kalm 1,6 1014,9 92 1,50 127
13:39 16,2 14,9 1,4 WZW 1,6 1014,9 92 1,50 183
13:44 16,1 15,0 1,4 ZW 4,8 1014,9 93 1,50 287
13:49 16,3 15,3 4,7 ZW 4,8 1014,9 94 1,50 387
13:54 16,6 15,6 3,2 ZW 4,8 1014,9 94 1,50 292
13:59 16,4 15,3 4,7 ZW 6,4 1014,9 93 1,50 397
14:04 16,3 15,2 3,2 ZZW 6,4 1014,9 93 1,50 244
14:09 16,4 15,3 4,7 ZW 6,4 1014,9 93 1,50 369
14:14 16,6 15,5 1,4 ZW 4,8 1014,9 93 0,50 404
14:19 16,6 15,5 1,4 WNW 4,8 1014,9 93 0,20 427
14:24 16,7 15,4 3,2 WZW 4,8 1014,9 92 - 364
14:29 16,8 15,3 3,2 ZW 4,8 1014,9 91 - 492
14:34 17,2 15,7 1,4 ZW 6,4 1014,9 91 - 345
14:39 17,2 15,5   Kalm 6,4 1014,9 90 - 271
14:44 17,1 15,4 1,4 ZW 8,0 1014,9 90 - 299
14:49 17,0 15,3 1,4 ZW 6,4 1014,9 90 - 1083
14:54 17,9 16,1 3,2 Zuiden 6,4 1014,9 89 - 884
14:59 18,2 16,2 3,2 WZW 6,4 1014,9 88 - 564
15:04 17,8 15,6 4,7 ZW 6,4 1014,9 87 - 338
15:09 17,6 15,6 3,2 ZW 9,7 1015,2 88 - 174
15:14 17,4 15,4 4,7 ZW 4,8 1015,2 88 - 199
15:19 17,3 15,5   Kalm 3,2 1015,2 89 - 155
15:24 17,3 15,5 1,4 ZZO 4,8 1014,9 89 - 244
15:29 17,6 15,8 4,7 ZW 6,4 1015,2 89 - 239
15:34 17,5 15,5 4,7 ZW 8,0 1015,2 88 - 186
15:39 17,3 15,3 3,2 ZW 6,4 1015,2 88 - 276
15:44 17,3 15,3 3,2 WZW 6,4 1015,2 88 - 496
15:49 17,8 15,6 3,2 WZW 8,0 1015,2 87 - 431
15:54 17,7 15,5 7,9 ZW 8,0 1015,2 87 - 336
15:59 17,4 15,2 4,7 WZW 6,4 1015,2 87 - 192
16:04 17,3 15,1 4,7 WZW 6,4 1015,2 87 - 185
16:09 17,1 14,9 3,2 ZW 9,7 1015,2 87 - 221
16:14 16,9 14,5 6,4 ZW 8,0 1015,2 86 - 176
16:19 16,8 14,4 7,9 ZW 8,0 1015,2 86 - 151
16:24 16,6 14,1 3,2 WZW 8,0 1015,6 85 - 155
16:29 16,4 14,1 4,7 ZW 6,4 1015,6 86 - 181
16:34 16,3 14,1 1,4 ZW 3,2 1015,6 87 - 221
16:39 16,2 14,2 1,4 ZW 4,8 1015,2 88 - 257
16:44 16,3 14,3 3,2 ZW 4,8 1015,2 88 - 244
16:49 16,4 14,6 3,2 ZW 4,8 1015,2 89 - 271
16:54 16,7 14,7 3,2 ZW 4,8 1015,2 88 - 295
16:59 16,9 14,9 3,2 ZW 4,8 1015,2 88 - 323
17:04 17,3 15,3 1,4 WZW 3,2 1015,2 88 - 350
17:09 17,4 15,0 3,2 WZW 4,8 1015,2 86 - 281
17:14 17,4 15,0 4,7 ZW 4,8 1015,2 86 - 185
17:19 17,4 15,0 1,4 WZW 4,8 1015,2 86 - 151
17:24 17,4 15,0 3,2 ZW 4,8 1015,2 86 - 120
17:29 17,3 14,9 1,4 ZW 3,2 1015,2 86 - 125
17:34 17,2 14,8   Kalm 6,4 1015,2 86 - 90
17:39 17,1 14,7 4,7 ZW 4,8 1015,2 86 - 47
17:44 16,9 14,4 3,2 ZW 6,4 1015,2 85 - 39
17:49 16,7 14,3 3,2 ZW 4,8 1015,6 86 - 39
17:54 16,4 14,4 4,7 ZW 4,8 1015,6 88 0,50 35
17:59 16,1 14,3 1,4 ZW 3,2 1015,6 89 0,50 37
18:04 15,9 14,3   Kalm   1015,6 90 1,50 47
18:09 15,8 14,3   Kalm 1,6 1015,6 91 1,80 98
18:14 15,8 14,5   Kalm 1,6 1015,6 92 1,80 141
18:19 15,8 14,7   Kalm 1,6 1015,6 93 1,80 132
18:24 15,9 14,8   Kalm   1015,6 93 1,80 125
18:29 15,9 14,8   Kalm 1,6 1015,2 93 1,80 153
18:34 15,9 14,8   Kalm   1015,6 93 1,80 158
18:39 16,0 15,0   Kalm   1015,6 94 1,80 169
18:44 16,0 15,0   Kalm   1015,6 94 1,80 139
18:49 16,1 15,1   Kalm   1015,6 94 1,80 128
18:54 16,1 15,1   Kalm 1,6 1015,6 94 1,50 142
18:59 16,2 15,2   Kalm 1,6 1015,6 94 1,30 165
19:04 16,4 15,6   Kalm 1,6 1015,6 95 0,50 134
19:09 16,5 15,5 1,4 ZW 1,6 1015,6 94 - 54
19:14 16,3 15,3   Kalm 3,2 1015,6 94 - 51
19:19 16,1 15,1   Kalm 3,2 1015,6 94 - 46
19:24 15,9 14,9 1,4 ZW 3,2 1015,6 94 - 47
19:29 15,9 14,9   Kalm   1015,6 94 - 56
19:34 15,9 14,9   Kalm 1,6 1015,6 94 - 58
19:39 15,9 14,9 1,4 ZW 3,2 1015,9 94 - 39
19:44 15,9 14,9   Kalm   1015,9 94 - 42
19:49 15,9 14,9   Kalm   1015,9 94 - 56
19:55 16,0 15,2   Kalm   1015,6 95 - 74
20:00 15,8 14,8   Kalm   1015,9 94 - 69
20:05 15,8 14,8   Kalm   1015,9 94 - 72
20:10 15,8 15,0   Kalm   1015,9 95 - 58
20:15 15,8 15,0   Kalm   1015,9 95 - 65
20:20 15,8 14,8   Kalm   1015,9 94 - 70
20:25 15,8 15,0   Kalm   1015,9 95 - 63
20:30 15,8 14,8   Kalm   1015,9 94 - 58
20:35 15,7 14,9   Kalm   1015,9 95 - 54
20:40 15,7 14,9   Kalm   1015,9 95 - 44
20:45 15,6 14,6   Kalm   1015,9 94 - 32
20:50 15,6 14,6   Kalm   1015,9 94 - 25
20:55 15,5 14,5   Kalm   1015,9 94 - 19
21:00 15,4 14,4   Kalm   1015,9 94 - 18
21:05 15,4 14,6   Kalm   1015,9 95 - 18
21:10 15,4 14,6   Kalm   1015,9 95 - 14
21:15 15,4 14,6   Kalm   1015,9 95 - 12
21:20 15,4 14,6   Kalm   1015,9 95 - 9
21:25 15,3 14,5   Kalm   1015,9 95 - 7
21:30 15,3 14,5   Kalm   1015,9 95 - 7
21:35 15,2 14,4   Kalm   1015,9 95 - 5
21:40 15,2 14,4   Kalm   1015,9 95 - -
21:45 15,1 14,3   Kalm   1016,3 95 - -
21:50 15,1 14,3   Kalm   1016,3 95 - -
21:55 15,0 14,2   Kalm   1016,3 95 - -
22:00 14,9 14,1   Kalm   1016,3 95 - -
22:05 14,8 14,0   Kalm   1016,3 95 - -
22:10 14,8 14,0   Kalm   1016,3 95 - -
22:15 14,8 14,0   Kalm   1016,3 95 - -
22:20 14,7 13,9   Kalm   1016,3 95 - -
Dagelijkse Samenvatting Zaterdag 25 mei 2024
Tijd Temp. ( °C ) Dew pt. ( °C ) Wind ( km/h ) van Windvlaag ( km/h ) Luchtdruk ( hPa ) Humid.( % ) Rainrate ( cm ) Zonneschijn ( W/m2 )
Hoog18,7 16,2 11,1 ZW ( 161/516 ) 14,5 1016,3 98 1,80 1083
Gemiddeld15,7 14,5 1,9 Kalm #91/268 4,1 1015,1 93 1,50 198 #188/268
Laag14,2 13,7 -   0,0 1014,2 78 -  
Dagelijkse Tabular details for Zaterdag 25 mei 2024
Tijd Temp. ( °C ) Dew pt. ( °C ) Wind ( km/h ) van Windvlaag ( km/h ) Luchtdruk ( hPa ) Humid.( % ) Rainrate ( cm ) Zonneschijn ( W/m2 )
00:02 14,6 14,1 4,7 Noorden 6,4 1016,3 97 0,20 -
00:07 14,6 14,1 4,7 NNO 6,4 1016,3 97 0,20 -
00:12 14,6 14,1 3,2 Noorden 8,0 1016,3 97 0,20 -
00:17 14,6 14,1 3,2 Noorden 8,0 1016,3 97 0,20 -
00:22 14,6 14,1 4,7 NNW 4,8 1016,3 97 0,20 -
00:27 14,6 14,1 7,9 ONO 9,7 1016,3 97 0,50 -
00:32 14,6 14,1   Kalm 8,0 1016,3 97 0,50 -
00:37 14,6 14,1 3,2 NO 6,4 1016,3 97 0,20 -
00:42 14,5 14,0 6,4 ONO 12,9 1016,3 97 0,20 -
00:47 14,5 14,0 1,4 NNO 6,4 1015,9 97 0,20 -
00:52 14,5 14,0 4,7 NO 9,7 1015,9 97 0,20 -
00:57 14,5 14,0 6,4 NO 8,0 1015,9 97 0,20 -
01:02 14,4 13,9 4,7 NO 11,3 1015,9 97 0,50 -
01:07 14,5 14,0   Kalm 4,8 1015,9 97 0,50 -
01:12 14,6 14,1 3,2 NNW 6,4 1015,9 97 0,50 -
01:17 14,5 14,0 1,4 NO 4,8 1015,9 97 0,80 -
01:22 14,5 14,0 3,2 Noorden 4,8 1015,9 97 0,80 -
01:27 14,5 14,0 3,2 NNO 4,8 1015,9 97 0,80 -
01:32 14,4 13,9 3,2 NNO 4,8 1015,9 97 0,80 -
01:37 14,4 13,9 6,4 NNW 11,3 1015,9 97 0,80 -
01:42 14,4 13,9 4,7 NO 6,4 1015,9 97 1,00 -
01:47 14,4 13,9 3,2 Noorden 4,8 1015,9 97 1,00 -
01:52 14,4 13,9 1,4 NNO 4,8 1015,9 97 1,30 -
01:57 14,4 13,9 3,2 NW 4,8 1015,9 97 1,50 -
02:02 14,3 13,8 1,4 NO 3,2 1015,9 97 1,30 -
02:08 14,3 13,8   Kalm 4,8 1015,6 97 1,50 -
02:13 14,3 13,8   Kalm 4,8 1015,6 97 1,30 -
02:18 14,3 13,8 1,4 NO 4,8 1015,6 97 1,00 -
02:23 14,3 13,8   Kalm 3,2 1015,6 97 1,00 -
02:28 14,3 13,8 1,4 NNO 4,8 1015,6 97 1,00 -
02:33 14,3 13,8   Kalm 3,2 1015,6 97 1,00 -
02:38 14,3 13,8 3,2 Noorden 6,4 1015,6 97 1,00 -
02:43 14,3 13,8 4,7 NNW 4,8 1015,6 97 0,80 -
02:48 14,3 13,8 1,4 NO 3,2 1015,2 97 0,50 -
02:53 14,3 13,8 4,7 NNO 4,8 1015,2 97 0,50 -
02:58 14,3 13,8   Kalm 3,2 1015,2 97 0,50 -
03:03 14,3 13,8 1,4 NO 1,6 1015,2 97 0,50 -
03:08 14,2 13,7   Kalm 3,2 1015,2 97 0,50 -
03:13 14,3 13,8   Kalm 3,2 1015,2 97 0,50 -
03:18 14,2 13,7 1,4 Noorden 3,2 1015,2 97 0,50 -
03:23 14,2 13,7 3,2 NO 3,2 1015,2 97 0,50 -
03:28 14,2 13,7 1,4 NNW 6,4 1015,2 97 0,20 -
03:33 14,2 13,7 1,4 Noorden 3,2 1015,2 97 0,50 -
03:38 14,2 13,7 3,2 NO 4,8 1015,2 97 0,50 -
03:43 14,2 13,7 1,4 Noorden 3,2 1015,2 97 0,50 -
03:48 14,2 13,7   Kalm 1,6 1014,9 97 0,50 -
03:53 14,2 13,7 1,4 ONO 4,8 1014,9 97 0,50 -
03:58 14,2 13,7   Kalm 4,8 1014,9 97 0,20 -
04:03 14,3 13,8 1,4 ONO 4,8 1014,9 97 0,50 -
04:08 14,3 13,8 3,2 NO 6,4 1014,9 97 0,50 -
04:13 14,3 13,8 3,2 NO 4,8 1014,9 97 0,50 -
04:18 14,3 13,8 6,4 NO 6,4 1014,9 97 0,50 -
04:23 14,3 13,8   Kalm 4,8 1014,9 97 0,50 -
04:28 14,3 14,0 3,2 ONO 3,2 1014,9 98 0,50 -
04:33 14,3 14,0 3,2 NNO 4,8 1014,9 98 0,20 -
04:38 14,3 14,0 1,4 NO 3,2 1014,9 98 0,20 -
04:43 14,3 14,0 1,4 Noorden 3,2 1014,6 98 0,20 -
04:48 14,3 14,0 1,4 Oosten 3,2 1014,6 98 0,20 -
04:53 14,3 14,0 3,2 Noorden 3,2 1014,6 98 0,20 -
04:58 14,3 14,0 1,4 NNO 4,8 1014,6 98 0,20 -
05:03 14,3 14,0 3,2 Noorden 3,2 1014,6 98 - -
05:08 14,3 14,0 3,2 NNO 4,8 1014,6 98 0,20 -
05:13 14,3 14,0 1,4 Noorden 1,6 1014,6 98 0,20 -
05:18 14,3 14,0 1,4 NO 1,6 1014,6 98 0,20 -
05:23 14,3 14,0 1,4 Noorden 3,2 1014,6 98 0,20 -
05:28 14,3 14,0   Kalm 3,2 1014,6 98 0,20 -
05:33 14,3 14,0 3,2 NNW 3,2 1014,6 98 0,20 -
05:38 14,3 14,0   Kalm 4,8 1014,6 98 0,20 -
05:43 14,3 14,0 1,4 Oosten 3,2 1014,6 98 0,20 -
05:48 14,3 14,0 1,4 Oosten 1,6 1014,6 98 0,20 -
05:53 14,3 14,0 1,4 NNO 3,2 1014,6 98 0,20 -
05:58 14,3 14,0 1,4 Noorden 3,2 1014,2 98 0,20 5
06:03 14,3 14,0 3,2 NNO 3,2 1014,2 98 0,20 7
06:08 14,3 14,0 1,4 Noorden 1,6 1014,2 98 - 9
06:13 14,3 14,0 1,4 NNO 3,2 1014,2 98 - 11
06:18 14,3 14,0 1,4 ONO 4,8 1014,2 98 - 14
06:23 14,3 14,0   Kalm 4,8 1014,2 98 - 23
06:28 14,3 14,0 1,4 NO 8,0 1014,2 98 - 16
06:33 14,4 14,1 1,4 NNW 4,8 1014,2 98 - 14
06:38 14,3 14,0 1,4 Oosten 3,2 1014,2 98 - 11
06:43 14,3 14,0 1,4 Oosten 1,6 1014,2 98 - 9
06:48 14,4 14,1 1,4 NO 3,2 1014,2 98 - 11
06:53 14,3 14,0   Kalm 3,2 1014,2 98 - 25
06:58 14,3 14,0 3,2 NO 4,8 1014,2 98 - 26
07:03 14,4 14,1 3,2 NO 6,4 1014,2 98 - 37
07:08 14,3 14,0 4,7 OZO 4,8 1014,2 98 - 42
07:13 14,4 14,1   Kalm 3,2 1014,2 98 - 54
07:18 14,4 14,1   Kalm 3,2 1014,2 98 - 49
07:23 14,4 14,1 1,4 OZO 4,8 1014,2 98 - 44
07:28 14,4 14,1 1,4 Oosten 4,8 1014,2 98 - 42
07:33 14,5 14,2   Kalm 3,2 1014,2 98 - 97
07:38 14,6 14,3   Kalm 1,6 1014,2 98 - 292
07:43 14,8 14,5   Kalm 3,2 1014,2 98 - 190
07:48 14,9 14,6   Kalm 4,8 1014,2 98 - 186
07:53 14,9 14,4 3,2 ZO 6,4 1014,2 97 - 146
07:58 14,9 14,6   Kalm 1,6 1014,2 98 - 308
08:03 14,9 14,6   Kalm 1,6 1014,2 98 - 60
08:08 14,8 14,3   Kalm   1014,2 97 - 54
08:13 14,7 14,2   Kalm 3,2 1014,6 97 - 79
08:18 14,7 14,2 1,4 ZO 1,6 1014,6 97 - 121
08:23 14,8 14,3 1,4 ZZO 3,2 1014,2 97 - 139
08:28 14,8 14,3   Kalm 3,2 1014,6 97 - 102
08:33 14,8 14,3   Kalm 1,6 1014,6 97 - 134
08:38 14,8 14,3   Kalm 1,6 1014,6 97 - 125
08:43 14,8 14,3 1,4 ZZO 3,2 1014,6 97 - 186
08:48 14,9 14,4 1,4 ZO 3,2 1014,6 97 - 260
08:53 15,1 14,6 1,4 ZW 4,8 1014,6 97 - 348
08:58 15,3 14,8 1,4 ZO 6,4 1014,6 97 - 220
09:03 15,4 14,8   Kalm   1014,6 96 - 123
09:08 15,3 14,7 3,2 OZO 3,2 1014,6 96 - 137
09:13 15,3 14,5 1,4 ZZW 3,2 1014,6 95 - 139
09:18 15,2 14,4   Kalm 1,6 1014,6 95 - 255
09:23 15,4 14,6 3,2 OZO 4,8 1014,6 95 - 411
09:28 15,8 14,8 6,4 ZO 6,4 1014,6 94 - 304
09:33 16,0 14,9 3,2 Oosten 6,4 1014,6 93 - 359
09:38 16,1 14,8   Kalm 3,2 1014,6 92 - 230
09:43 16,2 14,9 1,4 ZW 3,2 1014,6 92 - 279
09:48 16,2 14,9 3,2 ZW 3,2 1014,6 92 - 260
09:53 16,1 14,6 3,2 ZZO 4,8 1014,6 91 - 364
09:58 16,8 15,3 3,2 ZZW 4,8 1014,6 91 - 353
10:03 16,4 14,8 1,4 ZW 3,2 1014,6 90 - 223
10:08 16,3 14,7 3,2 ZO 4,8 1014,6 90 - 243
10:13 16,5 14,9 1,4 Oosten 6,4 1014,6 90 - 301
10:18 16,6 14,8 3,2 ZO 4,8 1014,6 89 - 269
10:23 16,6 14,6 4,7 ZO 8,0 1014,6 88 - 223
10:28 16,6 14,6 1,4 Zuiden 4,8 1014,6 88 - 239
10:33 16,6 14,6 3,2 ZW 4,8 1014,6 88 - 207
10:38 16,7 14,9 1,4 ZW 4,8 1014,6 89 - 142
10:43 16,4 14,6 3,2 ZZW 4,8 1014,6 89 - 178
10:48 16,1 14,5   Kalm 6,4 1014,6 90 - 338
10:53 16,1 14,6 1,4 ZW 3,2 1014,6 91 - 332
10:59 16,3 14,8 1,4 ZZO 6,4 1014,6 91 - 304
11:04 16,7 15,1 1,4 WZW 3,2 1014,6 90 - 285
11:09 16,7 15,1   Kalm 4,8 1014,6 90 - 267
11:14 16,7 14,9 1,4 WZW 6,4 1014,6 89 - 297
11:19 16,7 14,3 1,4 ONO 8,0 1014,6 86 - 338
11:24 16,7 14,2 4,7 Oosten 8,0 1014,9 85 - 445
11:29 17,2 14,7 3,2 ZO 8,0 1014,6 85 - 540
11:34 17,6 14,5 1,4 Zuiden 9,7 1014,6 82 - 512
11:39 17,6 13,7 1,4 ZO 4,8 1014,6 78 - 552
11:44 17,8 14,7 1,4 ZO 4,8 1014,9 82 - 420
11:49 17,8 14,9 3,2 ZW 4,8 1014,6 83 - 408
11:54 17,6 15,0 3,2 ZW 4,8 1014,9 85 - 294
11:59 17,4 15,0   Kalm 4,8 1014,9 86 - 285
12:04 17,3 14,9   Kalm 3,2 1014,9 86 - 338
12:09 17,6 15,0 3,2 ZW 3,2 1014,6 85 - 461
12:14 18,0 14,9 4,7 OZO 11,3 1014,9 82 - 547
12:19 18,7 15,4 3,2 WZW 4,8 1014,6 81 - 617
12:24 18,3 14,8 1,4 ZW 4,8 1014,9 80 - 229
12:29 17,9 14,8   Kalm 3,2 1014,9 82 - 410
12:34 18,2 15,3 1,4 ZW 3,2 1014,9 83 - 552
12:39 18,2 14,9 3,2 OZO 4,8 1014,9 81 - 369
12:44 18,3 15,2 3,2 ZO 4,8 1014,9 82 - 385
12:49 18,4 15,1 6,4 ZO 11,3 1014,9 81 - 250
12:54 18,1 15,0 1,4 ZZO 9,7 1014,9 82 - 234
12:59 17,9 15,0 11,1 OZO 11,3 1014,9 83 - 165
13:04 17,7 14,8 6,4 ZO 14,5 1014,9 83 - 116
13:09 17,4 14,9 4,7 OZO 6,4 1014,9 85 - 63
13:14 17,1 14,9 4,7 ZW 6,4 1014,9 87 1,00 37
13:19 16,8 15,0 1,4 Oosten 3,2 1014,9 89 1,50 35
13:24 16,6 15,0 1,4 ZW 3,2 1014,9 90 1,50 63
13:29 16,3 14,8   Kalm 3,2 1014,9 91 1,50 97
13:34 16,3 15,0   Kalm 1,6 1014,9 92 1,50 127
13:39 16,2 14,9 1,4 WZW 1,6 1014,9 92 1,50 183
13:44 16,1 15,0 1,4 ZW 4,8 1014,9 93 1,50 287
13:49 16,3 15,3 4,7 ZW 4,8 1014,9 94 1,50 387
13:54 16,6 15,6 3,2 ZW 4,8 1014,9 94 1,50 292
13:59 16,4 15,3 4,7 ZW 6,4 1014,9 93 1,50 397
14:04 16,3 15,2 3,2 ZZW 6,4 1014,9 93 1,50 244
14:09 16,4 15,3 4,7 ZW 6,4 1014,9 93 1,50 369
14:14 16,6 15,5 1,4 ZW 4,8 1014,9 93 0,50 404
14:19 16,6 15,5 1,4 WNW 4,8 1014,9 93 0,20 427
14:24 16,7 15,4 3,2 WZW 4,8 1014,9 92 - 364
14:29 16,8 15,3 3,2 ZW 4,8 1014,9 91 - 492
14:34 17,2 15,7 1,4 ZW 6,4 1014,9 91 - 345
14:39 17,2 15,5   Kalm 6,4 1014,9 90 - 271
14:44 17,1 15,4 1,4 ZW 8,0 1014,9 90 - 299
14:49 17,0 15,3 1,4 ZW 6,4 1014,9 90 - 1083
14:54 17,9 16,1 3,2 Zuiden 6,4 1014,9 89 - 884
14:59 18,2 16,2 3,2 WZW 6,4 1014,9 88 - 564
15:04 17,8 15,6 4,7 ZW 6,4 1014,9 87 - 338
15:09 17,6 15,6 3,2 ZW 9,7 1015,2 88 - 174
15:14 17,4 15,4 4,7 ZW 4,8 1015,2 88 - 199
15:19 17,3 15,5   Kalm 3,2 1015,2 89 - 155
15:24 17,3 15,5 1,4 ZZO 4,8 1014,9 89 - 244
15:29 17,6 15,8 4,7 ZW 6,4 1015,2 89 - 239
15:34 17,5 15,5 4,7 ZW 8,0 1015,2 88 - 186
15:39 17,3 15,3 3,2 ZW 6,4 1015,2 88 - 276
15:44 17,3 15,3 3,2 WZW 6,4 1015,2 88 - 496
15:49 17,8 15,6 3,2 WZW 8,0 1015,2 87 - 431
15:54 17,7 15,5 7,9 ZW 8,0 1015,2 87 - 336
15:59 17,4 15,2 4,7 WZW 6,4 1015,2 87 - 192
16:04 17,3 15,1 4,7 WZW 6,4 1015,2 87 - 185
16:09 17,1 14,9 3,2 ZW 9,7 1015,2 87 - 221
16:14 16,9 14,5 6,4 ZW 8,0 1015,2 86 - 176
16:19 16,8 14,4 7,9 ZW 8,0 1015,2 86 - 151
16:24 16,6 14,1 3,2 WZW 8,0 1015,6 85 - 155
16:29 16,4 14,1 4,7 ZW 6,4 1015,6 86 - 181
16:34 16,3 14,1 1,4 ZW 3,2 1015,6 87 - 221
16:39 16,2 14,2 1,4 ZW 4,8 1015,2 88 - 257
16:44 16,3 14,3 3,2 ZW 4,8 1015,2 88 - 244
16:49 16,4 14,6 3,2 ZW 4,8 1015,2 89 - 271
16:54 16,7 14,7 3,2 ZW 4,8 1015,2 88 - 295
16:59 16,9 14,9 3,2 ZW 4,8 1015,2 88 - 323
17:04 17,3 15,3 1,4 WZW 3,2 1015,2 88 - 350
17:09 17,4 15,0 3,2 WZW 4,8 1015,2 86 - 281
17:14 17,4 15,0 4,7 ZW 4,8 1015,2 86 - 185
17:19 17,4 15,0 1,4 WZW 4,8 1015,2 86 - 151
17:24 17,4 15,0 3,2 ZW 4,8 1015,2 86 - 120
17:29 17,3 14,9 1,4 ZW 3,2 1015,2 86 - 125
17:34 17,2 14,8   Kalm 6,4 1015,2 86 - 90
17:39 17,1 14,7 4,7 ZW 4,8 1015,2 86 - 47
17:44 16,9 14,4 3,2 ZW 6,4 1015,2 85 - 39
17:49 16,7 14,3 3,2 ZW 4,8 1015,6 86 - 39
17:54 16,4 14,4 4,7 ZW 4,8 1015,6 88 0,50 35
17:59 16,1 14,3 1,4 ZW 3,2 1015,6 89 0,50 37
18:04 15,9 14,3   Kalm   1015,6 90 1,50 47
18:09 15,8 14,3   Kalm 1,6 1015,6 91 1,80 98
18:14 15,8 14,5   Kalm 1,6 1015,6 92 1,80 141
18:19 15,8 14,7   Kalm 1,6 1015,6 93 1,80 132
18:24 15,9 14,8   Kalm   1015,6 93 1,80 125
18:29 15,9 14,8   Kalm 1,6 1015,2 93 1,80 153
18:34 15,9 14,8   Kalm   1015,6 93 1,80 158
18:39 16,0 15,0   Kalm   1015,6 94 1,80 169
18:44 16,0 15,0   Kalm   1015,6 94 1,80 139
18:49 16,1 15,1   Kalm   1015,6 94 1,80 128
18:54 16,1 15,1   Kalm 1,6 1015,6 94 1,50 142
18:59 16,2 15,2   Kalm 1,6 1015,6 94 1,30 165
19:04 16,4 15,6   Kalm 1,6 1015,6 95 0,50 134
19:09 16,5 15,5 1,4 ZW 1,6 1015,6 94 - 54
19:14 16,3 15,3   Kalm 3,2 1015,6 94 - 51
19:19 16,1 15,1   Kalm 3,2 1015,6 94 - 46
19:24 15,9 14,9 1,4 ZW 3,2 1015,6 94 - 47
19:29 15,9 14,9   Kalm   1015,6 94 - 56
19:34 15,9 14,9   Kalm 1,6 1015,6 94 - 58
19:39 15,9 14,9 1,4 ZW 3,2 1015,9 94 - 39
19:44 15,9 14,9   Kalm   1015,9 94 - 42
19:49 15,9 14,9   Kalm   1015,9 94 - 56
19:55 16,0 15,2   Kalm   1015,6 95 - 74
20:00 15,8 14,8   Kalm   1015,9 94 - 69
20:05 15,8 14,8   Kalm   1015,9 94 - 72
20:10 15,8 15,0   Kalm   1015,9 95 - 58
20:15 15,8 15,0   Kalm   1015,9 95 - 65
20:20 15,8 14,8   Kalm   1015,9 94 - 70
20:25 15,8 15,0   Kalm   1015,9 95 - 63
20:30 15,8 14,8   Kalm   1015,9 94 - 58
20:35 15,7 14,9   Kalm   1015,9 95 - 54
20:40 15,7 14,9   Kalm   1015,9 95 - 44
20:45 15,6 14,6   Kalm   1015,9 94 - 32
20:50 15,6 14,6   Kalm   1015,9 94 - 25
20:55 15,5 14,5   Kalm   1015,9 94 - 19
21:00 15,4 14,4   Kalm   1015,9 94 - 18
21:05 15,4 14,6   Kalm   1015,9 95 - 18
21:10 15,4 14,6   Kalm   1015,9 95 - 14
21:15 15,4 14,6   Kalm   1015,9 95 - 12
21:20 15,4 14,6   Kalm   1015,9 95 - 9
21:25 15,3 14,5   Kalm   1015,9 95 - 7
21:30 15,3 14,5   Kalm   1015,9 95 - 7
21:35 15,2 14,4   Kalm   1015,9 95 - 5
21:40 15,2 14,4   Kalm   1015,9 95 - -
21:45 15,1 14,3   Kalm   1016,3 95 - -
21:50 15,1 14,3   Kalm   1016,3 95 - -
21:55 15,0 14,2   Kalm   1016,3 95 - -
22:00 14,9 14,1   Kalm   1016,3 95 - -
22:05 14,8 14,0   Kalm   1016,3 95 - -
22:10 14,8 14,0   Kalm   1016,3 95 - -
22:15 14,8 14,0   Kalm   1016,3 95 - -
22:20 14,7 13,9   Kalm   1016,3 95 - -

Download your copy of this data-set  here

Our weather-data as stored at Weather Underground. Script ontwikkeld door Jim McMurry. Aangepast voor de template door Leuven-Template.eu

U vindt ons ook hier:

Het Weer Aktueel

UK Metoffice

WeatherCloud

Weather Underground-IWESTE54

BNLWN

AWEKAS

Citizen Weather Observer Program (CWOP)

HAMweather, WeatherForYou, PWS Weather

weerspecialist

Apparatuur in gebruik:

Weerstation
Davis VP2

Weercomputer
Meteobridge Nano SD

Webleverancier
Strato

Davis VP2

Meteobridge Nano SD

Strato